Time;durP1;ratioP1;P1;durP2;ratioP2;P2;SDS_P1;SDS_P2;PMS_P1;PMS_P2;Temp;Humidity;BMP_temperature;BMP_pressure;BME280_temperature;BME280_humidity;BME280_pressure;Samples;Min_cycle;Max_cycle;Signal;HPM_P1;HPM_P2
2023/10/15 00:00:00;;;;;;;29.30;1.97;;;;;;;23.51;55.34;99281.44;7316145;19;129832;-40
2023/10/15 00:02:25;;;;;;;84.05;5.13;;;;;;;23.62;55.85;99303.94;7313958;19;130599;-40
2023/10/15 00:04:51;;;;;;;45.77;2.60;;;;;;;23.62;55.83;99302.13;7311844;19;129407;-40
2023/10/15 00:07:16;;;;;;;67.73;3.87;;;;;;;23.48;56.30;99275.69;7312969;19;130211;-36
2023/10/15 00:09:41;;;;;;;46.23;2.87;;;;;;;23.62;56.06;99303.94;7315321;19;129404;-38
2023/10/15 00:12:07;;;;;;;36.87;2.20;;;;;;;23.56;54.02;99301.94;7313380;19;129560;-39
2023/10/15 00:14:32;;;;;;;53.90;3.70;;;;;;;23.48;52.46;99296.66;7314180;19;129512;-40
2023/10/15 00:16:59;;;;;;;67.60;3.77;;;;;;;23.55;51.82;99300.31;7311542;19;129690;-38
2023/10/15 00:19:24;;;;;;;85.68;4.90;;;;;;;23.58;54.21;99303.44;7313629;19;130260;-38
2023/10/15 00:21:51;;;;;;;26.97;1.83;;;;;;;23.56;54.63;99294.91;7314385;19;129124;-39
2023/10/15 00:24:16;;;;;;;81.53;4.50;;;;;;;23.59;54.77;99305.06;7312046;19;129231;-39
2023/10/15 00:26:44;;;;;;;64.10;3.43;;;;;;;23.57;55.40;99298.34;7312151;19;129240;-37
2023/10/15 00:29:09;;;;;;;30.33;2.15;;;;;;;23.53;54.90;99291.78;7313168;19;131048;-39
2023/10/15 00:31:35;;;;;;;40.77;2.37;;;;;;;23.62;55.28;99304.75;7313730;19;129120;-40
2023/10/15 00:34:00;;;;;;;47.67;2.73;;;;;;;23.61;55.90;99313.63;7310944;19;128849;-39
2023/10/15 00:36:27;;;;;;;71.47;4.40;;;;;;;23.62;55.90;99311.81;7311557;19;129613;-37
2023/10/15 00:38:52;;;;;;;54.95;3.20;;;;;;;23.61;55.80;99308.38;7311744;19;129650;-35
2023/10/15 00:41:17;;;;;;;31.55;1.95;;;;;;;23.61;55.64;99308.38;7313174;19;129240;-40
2023/10/15 00:43:51;;;;;;;60.30;3.40;;;;;;;23.61;57.56;99308.38;7314650;19;129284;-34
2023/10/15 00:46:17;;;;;;;50.70;2.83;;;;;;;23.56;55.69;99302.78;7311406;19;130426;-37
2023/10/15 00:48:43;;;;;;;37.45;2.30;;;;;;;23.61;56.24;99307.53;7313012;19;129501;-38
2023/10/15 00:51:13;;;;;;;30.00;1.90;;;;;;;23.60;56.10;99306.69;7312277;19;129226;-40
2023/10/15 00:53:50;;;;;;;44.60;2.65;;;;;;;23.60;56.50;99309.31;7309795;19;128862;-40
2023/10/15 00:56:22;;;;;;;65.03;3.80;;;;;;;23.62;57.15;99307.38;7310797;19;129150;-38
2023/10/15 00:59:07;;;;;;;63.33;3.42;;;;;;;23.52;54.13;99308.50;7314435;19;130394;-40
2023/10/15 01:01:42;;;;;;;86.22;4.85;;;;;;;23.55;52.36;99308.97;7312205;19;128900;-40
2023/10/15 01:04:09;;;;;;;72.65;4.47;;;;;;;23.70;52.65;99307.41;7312573;19;129424;-40
2023/10/15 01:06:38;;;;;;;63.78;3.78;;;;;;;23.52;54.35;99293.56;7310040;19;129531;-39
2023/10/15 01:09:09;;;;;;;48.58;2.63;;;;;;;23.56;54.82;99301.94;7311824;19;130404;-40
2023/10/15 01:12:18;;;;;;;92.07;5.10;;;;;;;23.59;56.12;99315.56;7312158;19;128950;-39
2023/10/15 01:14:37;;;;;;;103.32;5.78;;;;;;;23.61;55.39;99313.63;7305094;19;129171;-40
2023/10/15 01:17:03;;;;;;;59.42;3.40;;;;;;;23.60;55.15;99317.19;7312290;19;131289;-38
2023/10/15 01:19:33;;;;;;;85.30;5.07;;;;;;;23.55;56.03;99316.84;7312564;19;129740;-39
2023/10/15 01:22:02;;;;;;;26.42;1.95;;;;;;;23.60;55.34;99324.28;7311996;19;129217;-40
2023/10/15 01:24:32;;;;;;;77.55;4.53;;;;;;;23.59;55.84;99331.31;7309249;19;129411;-38
2023/10/15 01:27:11;;;;;;;78.90;4.18;;;;;;;23.57;56.05;99330.66;7308618;19;131128;-40
2023/10/15 01:29:42;;;;;;;86.40;4.78;;;;;;;23.59;57.11;99331.31;7311985;19;129738;-40
2023/10/15 01:32:18;;;;;;;34.05;2.05;;;;;;;23.59;55.95;99331.31;7311897;19;129684;-40
2023/10/15 01:34:44;;;;;;;39.97;2.22;;;;;;;23.60;55.92;99326.91;7310815;19;129202;-39
2023/10/15 01:39:49;;;;;;;16.48;1.35;;;;;;;23.61;56.17;99328.53;7312098;19;129205;-38
2023/10/15 01:48:03;;;;;;;68.95;4.18;;;;;;;23.51;52.83;99336.53;7310765;19;129389;-38
2023/10/15 01:50:33;;;;;;;99.15;5.35;;;;;;;23.61;53.69;99333.78;7311626;19;129359;-38
2023/10/15 01:53:01;;;;;;;26.73;1.60;;;;;;;23.56;54.60;99322.94;7310491;19;129665;-39
2023/10/15 01:55:29;;;;;;;59.88;3.45;;;;;;;23.58;54.58;99334.09;7309461;19;129231;-38
2023/10/15 01:57:56;;;;;;;67.43;3.70;;;;;;;23.59;54.97;99323.44;7309168;19;130257;-39
2023/10/15 02:00:34;;;;;;;66.75;3.65;;;;;;;23.59;55.00;99327.84;7310977;19;129689;-37
2023/10/15 02:02:59;;;;;;;59.95;3.10;;;;;;;23.57;55.26;99322.78;7310140;19;128872;-38
2023/10/15 02:05:28;;;;;;;40.93;2.43;;;;;;;23.58;55.68;99318.34;7307376;19;128788;-39
2023/10/15 02:07:56;;;;;;;34.53;2.05;;;;;;;23.58;56.01;99318.34;7309907;19;130049;-39
2023/10/15 02:10:24;;;;;;;53.78;2.97;;;;;;;23.57;55.52;99319.34;7309266;19;130002;-39
2023/10/15 02:12:59;;;;;;;97.85;5.60;;;;;;;23.58;55.50;99324.44;7307617;19;129835;-39
2023/10/15 02:15:24;;;;;;;40.42;2.53;;;;;;;23.54;55.42;99317.84;7309439;19;129235;-36
2023/10/15 02:17:53;;;;;;;17.63;1.37;;;;;;;23.46;55.77;99302.06;7310291;19;129521;-39
2023/10/15 02:20:42;;;;;;;36.20;2.38;;;;;;;23.57;56.57;99320.16;7307434;19;130155;-36
2023/10/15 02:23:07;;;;;;;35.33;2.15;;;;;;;23.45;56.23;99300.44;7308919;19;129178;-39
2023/10/15 02:25:37;;;;;;;120.20;6.40;;;;;;;23.58;56.56;99329.69;7308184;19;129446;-39
2023/10/15 02:28:03;;;;;;;25.48;1.67;;;;;;;23.58;56.57;99318.34;7305594;19;129756;-38
2023/10/15 02:30:32;;;;;;;56.17;3.55;;;;;;;23.49;54.04;99330.63;7309495;19;130036;-39
2023/10/15 02:33:01;;;;;;;283.77;19.38;;;;;;;23.54;53.38;99328.34;7302925;19;129457;-38
2023/10/15 02:35:31;;;;;;;91.07;4.88;;;;;;;23.63;52.21;99330.03;7304637;19;128994;-39
2023/10/15 02:37:58;;;;;;;47.25;2.60;;;;;;;23.56;54.20;99326.38;7309796;19;129867;-37
2023/10/15 02:40:35;;;;;;;46.17;2.65;;;;;;;23.55;55.07;99327.34;7310719;19;130234;-40
2023/10/15 02:43:06;;;;;;;31.95;2.00;;;;;;;23.57;55.05;99330.66;7310750;19;130861;-39
2023/10/15 02:45:35;;;;;;;68.00;3.90;;;;;;;23.57;55.05;99332.47;7306505;19;129381;-40
2023/10/15 02:48:09;;;;;;;37.60;2.28;;;;;;;23.58;55.23;99329.69;7310331;19;129243;-39
2023/10/15 02:50:35;;;;;;;86.70;4.95;;;;;;;23.58;55.44;99329.69;7308877;19;131283;-39
2023/10/15 02:53:04;;;;;;;38.20;2.27;;;;;;;23.57;55.71;99337.72;7309809;19;129106;-40
2023/10/15 02:55:46;;;;;;;43.13;2.50;;;;;;;23.57;55.92;99328.03;7306675;19;129464;-39
2023/10/15 02:58:13;;;;;;;11.23;0.77;;;;;;;23.44;55.83;99316.31;7310147;19;130213;-38
2023/10/15 03:00:41;;;;;;;;;;;;;;;23.63;57.76;99343.16;7307445;19;130533;-40
2023/10/15 03:03:09;;;;;;;67.93;3.63;;;;;;;23.50;56.02;99327.03;7310604;19;130514;-37
2023/10/15 03:05:39;;;;;;;88.70;4.85;;;;;;;23.44;56.95;99322.41;7304141;19;129656;-39
2023/10/15 03:08:04;;;;;;;5.07;0.47;;;;;;;23.56;56.28;99336.88;7307222;19;129093;-39
2023/10/15 03:10:45;;;;;;;66.27;3.80;;;;;;;23.57;56.57;99346.41;7307021;19;129637;-38
2023/10/15 03:13:18;;;;;;;33.03;2.03;;;;;;;23.54;57.29;99344.09;7308516;19;129497;-39
2023/10/15 03:15:49;;;;;;;78.25;4.40;;;;;;;23.45;55.94;99324.06;7307057;19;129345;-38
2023/10/15 03:18:23;;;;;;;27.42;1.80;;;;;;;23.43;53.35;99346.16;7309667;19;129530;-39
2023/10/15 03:20:49;;;;;;;58.42;3.38;;;;;;;23.52;52.58;99346.03;7306849;19;130436;-38
2023/10/15 03:23:18;;;;;;;42.92;2.60;;;;;;;23.58;53.46;99345.44;7309067;19;129432;-39
2023/10/15 03:25:43;;;;;;;78.25;4.38;;;;;;;23.53;53.93;99347.72;7304516;19;129066;-40
2023/10/15 03:28:12;;;;;;;64.73;3.43;;;;;;;23.51;55.26;99339.16;7309240;19;131183;-38
2023/10/15 03:30:44;;;;;;;50.38;2.95;;;;;;;23.55;55.24;99345.72;7307869;19;129414;-39
2023/10/15 03:33:11;;;;;;;34.17;1.95;;;;;;;23.55;55.24;99344.91;7308248;19;128958;-39
2023/10/15 03:35:45;;;;;;;67.30;4.03;;;;;;;23.55;54.93;99343.09;7305460;19;129247;-38
2023/10/15 03:38:14;;;;;;;69.05;3.67;;;;;;;23.56;55.17;99347.38;7308013;19;129329;-38
2023/10/15 03:40:50;;;;;;;75.95;4.28;;;;;;;23.55;55.82;99352.78;7310975;19;130558;-39
2023/10/15 03:43:15;;;;;;;28.85;1.65;;;;;;;23.55;55.59;99348.34;7316835;19;129093;-39
2023/10/15 03:45:53;;;;;;;74.77;4.30;;;;;;;23.55;56.69;99345.72;7312606;19;129757;-38
2023/10/15 03:48:28;;;;;;;27.30;1.65;;;;;;;23.55;56.96;99342.28;7316035;19;130159;-38
2023/10/15 03:50:55;;;;;;;76.32;4.00;;;;;;;23.55;56.03;99345.72;7314087;19;130205;-39
2023/10/15 03:53:35;;;;;;;44.50;2.58;;;;;;;23.56;57.43;99346.56;7313872;19;129142;-38
2023/10/15 03:56:04;;;;;;;55.28;3.05;;;;;;;23.55;56.55;99339.66;7313132;19;129098;-36
2023/10/15 03:58:32;;;;;;;34.00;2.20;;;;;;;23.55;56.27;99352.78;7314981;19;130154;-39
2023/10/15 04:01:16;;;;;;;28.77;1.75;;;;;;;23.55;56.05;99345.72;7314993;19;130330;-40
2023/10/15 04:03:48;;;;;;;42.75;2.55;;;;;;;23.47;53.56;99345.69;7313639;19;128994;-39
2023/10/15 04:06:15;;;;;;;45.67;2.47;;;;;;;23.48;52.25;99334.25;7311592;19;128909;-37
2023/10/15 04:09:09;;;;;;;75.10;3.88;;;;;;;23.55;52.93;99339.66;7316031;19;130173;-40
2023/10/15 04:11:42;;;;;;;79.78;4.22;;;;;;;23.51;55.06;99348.81;7313846;19;130051;-38
2023/10/15 04:14:28;;;;;;;68.03;3.80;;;;;;;23.52;54.52;99346.03;7311566;19;128881;-36
2023/10/15 04:16:54;;;;;;;43.90;2.58;;;;;;;23.53;55.66;99342.47;7312480;19;130074;-37
2023/10/15 04:19:19;;;;;;;16.10;1.10;;;;;;;23.41;55.75;99327.97;7313975;19;129576;-39
2023/10/15 04:21:45;;;;;;;52.33;3.27;;;;;;;23.53;55.64;99342.47;7313349;19;129786;-37
2023/10/15 04:24:18;;;;;;;108.70;5.73;;;;;;;23.53;55.49;99342.47;7312185;19;130183;-38
2023/10/15 04:26:48;;;;;;;42.72;2.45;;;;;;;23.54;56.00;99343.25;7311210;19;129234;-39
2023/10/15 04:29:17;;;;;;;34.47;2.25;;;;;;;23.54;55.70;99338.84;7315219;19;131197;-40
2023/10/15 04:31:56;;;;;;;60.55;3.75;;;;;;;23.53;56.12;99337.22;7312438;19;130497;-38
2023/10/15 04:34:25;;;;;;;32.03;2.13;;;;;;;23.52;55.72;99338.16;7311953;19;129215;-39
2023/10/15 04:36:51;;;;;;;92.85;5.30;;;;;;;23.36;55.76;99301.38;7310347;19;129141;-39
2023/10/15 04:39:21;;;;;;;19.87;1.40;;;;;;;23.52;56.13;99330.31;7314665;19;129006;-37
2023/10/15 04:41:49;;;;;;;64.68;3.95;;;;;;;23.52;56.38;99335.53;7312726;19;130243;-39
2023/10/15 04:44:24;;;;;;;55.28;3.20;;;;;;;23.51;56.01;99333.91;7312901;19;129524;-38
2023/10/15 04:46:53;;;;;;;76.22;4.32;;;;;;;23.52;56.39;99334.75;7310557;19;129708;-39
2023/10/15 04:49:18;;;;;;;76.38;4.15;;;;;;;23.38;54.06;99332.69;7311217;19;130250;-38
2023/10/15 04:51:44;;;;;;;54.47;3.20;;;;;;;23.44;52.83;99332.06;7312282;19;131480;-39
2023/10/15 04:54:10;;;;;;;63.13;3.97;;;;;;;23.56;53.08;99329.00;7311208;19;130335;-40
2023/10/15 04:56:36;;;;;;;45.93;2.63;;;;;;;23.52;54.15;99340.78;7308794;19;131393;-39
2023/10/15 04:59:02;;;;;;;89.93;4.57;;;;;;;23.50;54.89;99342.78;7312553;19;130152;-39
2023/10/15 05:01:28;;;;;;;36.63;2.13;;;;;;;23.52;55.43;99340.78;7312912;19;129591;-40
2023/10/15 05:03:53;;;;;;;47.53;2.97;;;;;;;23.52;55.80;99346.03;7312426;19;129007;-39
2023/10/15 05:06:21;;;;;;;47.73;2.80;;;;;;;23.52;55.85;99343.41;7309996;19;129110;-37
2023/10/15 05:08:47;;;;;;;93.75;5.13;;;;;;;23.52;55.74;99337.38;7312699;19;130285;-40
2023/10/15 05:11:13;;;;;;;49.75;2.83;;;;;;;23.41;55.30;99322.72;7311404;19;129640;-38
2023/10/15 05:13:42;;;;;;;36.53;2.40;;;;;;;23.52;55.97;99332.91;7310855;19;129118;-40
2023/10/15 05:16:07;;;;;;;43.90;2.40;;;;;;;23.53;56.02;99341.63;7311968;19;129110;-39
2023/10/15 05:18:33;;;;;;;51.20;2.73;;;;;;;23.52;56.12;99343.41;7313961;19;129108;-36
2023/10/15 05:20:58;;;;;;;44.70;2.60;;;;;;;23.52;56.13;99340.78;7312312;19;129313;-38
2023/10/15 05:23:23;;;;;;;26.80;1.67;;;;;;;23.42;56.34;99321.72;7311796;19;129466;-39
2023/10/15 05:25:53;;;;;;;75.33;4.43;;;;;;;23.52;56.79;99343.41;7310131;19;129018;-37
2023/10/15 05:28:18;;;;;;;69.45;3.70;;;;;;;23.41;56.56;99327.97;7312506;19;130146;-38
2023/10/15 05:30:44;;;;;;;54.23;3.17;;;;;;;23.52;56.43;99343.41;7313276;19;129145;-39
2023/10/15 05:33:09;;;;;;;40.78;2.20;;;;;;;23.53;56.81;99346.88;7311006;19;129162;-37
2023/10/15 05:35:37;;;;;;;66.43;3.53;;;;;;;23.42;53.37;99341.91;7308131;19;130491;-39
2023/10/15 05:38:02;;;;;;;59.83;3.25;;;;;;;23.48;52.10;99346.53;7312081;19;129432;-37
2023/10/15 05:40:29;;;;;;;47.93;2.67;;;;;;;23.52;53.07;99347.88;7312249;19;130521;-38
2023/10/15 05:42:55;;;;;;;58.65;3.47;;;;;;;23.48;54.37;99347.34;7310986;19;129173;-40
2023/10/15 05:45:20;;;;;;;60.47;3.23;;;;;;;23.37;55.28;99325.81;7309335;19;130336;-40
2023/10/15 05:47:46;;;;;;;89.10;4.93;;;;;;;23.50;55.01;99353.28;7310871;19;129501;-38
2023/10/15 05:50:16;;;;;;;51.77;2.77;;;;;;;23.50;55.60;99355.91;7309230;19;129779;-40
2023/10/15 05:52:41;;;;;;;38.78;2.33;;;;;;;23.50;55.66;99353.28;7311532;19;130262;-37
2023/10/15 05:55:08;;;;;;;64.03;3.63;;;;;;;23.51;55.81;99349.66;7306894;19;130007;-39
2023/10/15 05:57:34;;;;;;;56.53;3.00;;;;;;;23.41;55.28;99343.72;7303850;19;129698;-35
2023/10/15 06:00:17;;;;;;;28.47;1.73;;;;;;;23.51;55.96;99354.91;7310876;19;129326;-37
2023/10/15 06:02:46;;;;;;;64.38;3.78;;;;;;;23.50;55.76;99347.19;7309176;19;128997;-39
2023/10/15 06:05:13;;;;;;;35.78;2.25;;;;;;;23.50;56.09;99353.28;7307880;19;128941;-37
2023/10/15 06:07:40;;;;;;;60.63;3.25;;;;;;;23.50;56.11;99355.91;7308056;19;129985;-38
2023/10/15 06:10:07;;;;;;;52.13;2.88;;;;;;;23.37;56.40;99336.31;7309176;19;129793;-37
2023/10/15 06:12:32;;;;;;;40.28;2.22;;;;;;;23.50;56.10;99369.03;7312020;19;128842;-39
2023/10/15 06:14:59;;;;;;;43.63;2.67;;;;;;;23.48;56.67;99368.34;7303879;19;134379;-40
2023/10/15 06:17:25;;;;;;;41.10;2.28;;;;;;;23.47;55.95;99361.44;7308262;19;129992;-39
2023/10/15 06:19:50;;;;;;;101.90;5.80;;;;;;;23.36;54.75;99353.84;7303958;19;129985;-37
2023/10/15 06:22:16;;;;;;;40.03;2.33;;;;;;;23.45;53.53;99360.78;7305695;19;129012;-39
2023/10/15 06:24:41;;;;;;;45.83;2.63;;;;;;;23.49;52.42;99362.09;7305834;19;130417;-38
2023/10/15 06:27:06;;;;;;;65.93;3.37;;;;;;;23.45;53.83;99360.78;7308498;19;131293;-40
2023/10/15 06:29:32;;;;;;;32.63;2.03;;;;;;;23.46;54.78;99367.69;7310553;19;129693;-36
2023/10/15 06:31:57;;;;;;;30.77;1.87;;;;;;;23.48;55.15;99376.22;7306790;19;129070;-40
2023/10/15 06:34:22;;;;;;;31.80;2.00;;;;;;;23.45;55.49;99366.03;7306402;19;131403;-39
2023/10/15 06:36:50;;;;;;;116.57;6.30;;;;;;;23.48;55.26;99376.22;7302192;19;129844;-37
2023/10/15 06:39:15;;;;;;;45.03;2.60;;;;;;;23.49;55.64;99377.03;7310361;19;131611;-39
2023/10/15 06:41:41;;;;;;;31.83;2.00;;;;;;;23.39;56.20;99366.66;7307713;19;129264;-37
2023/10/15 06:44:08;;;;;;;75.23;4.57;;;;;;;23.49;55.76;99374.41;7306722;19;129101;-40
2023/10/15 06:46:34;;;;;;;102.00;5.60;;;;;;;23.45;56.40;99371.28;7306455;19;129369;-38
2023/10/15 06:48:59;;;;;;;66.60;4.20;;;;;;;23.38;56.18;99362.41;7301493;19;130346;-38
2023/10/15 06:51:26;;;;;;;40.17;2.47;;;;;;;23.49;55.94;99383.09;7307657;19;129153;-38
2023/10/15 06:53:51;;;;;;;57.80;3.67;;;;;;;23.49;56.04;99383.09;7306562;19;129070;-38
2023/10/15 06:56:17;;;;;;;48.50;2.63;;;;;;;23.48;56.57;99376.22;7306503;19;129372;-39
2023/10/15 06:58:43;;;;;;;37.50;2.33;;;;;;;23.49;55.99;99383.09;7309548;19;129680;-40
2023/10/15 07:01:10;;;;;;;56.07;3.10;;;;;;;23.46;55.81;99380.78;7307641;19;129220;-40
2023/10/15 07:03:36;;;;;;;53.80;2.97;;;;;;;23.49;56.33;99390.13;7306176;19;129440;-37
2023/10/15 07:06:01;;;;;;;82.70;4.60;;;;;;;23.53;56.12;99394.09;7302631;19;131817;-38
2023/10/15 07:08:27;;;;;;;19.80;1.40;;;;;;;23.43;53.30;99386.38;7310120;19;129188;-39
2023/10/15 07:10:53;;;;;;;94.43;5.30;;;;;;;23.50;51.87;99384.75;7305539;19;128971;-39
2023/10/15 07:13:19;;;;;;;77.50;4.03;;;;;;;23.38;53.15;99375.50;7303820;19;129440;-38
2023/10/15 07:15:46;;;;;;;75.63;4.03;;;;;;;23.47;54.82;99410.50;7311041;19;130637;-37
2023/10/15 07:18:12;;;;;;;30.45;1.98;;;;;;;23.45;54.55;99408.03;7312650;19;129861;-38
2023/10/15 07:20:38;;;;;;;63.80;3.27;;;;;;;23.43;55.20;99394.22;7313381;19;131598;-39
2023/10/15 07:23:04;;;;;;;101.82;5.65;;;;;;;23.47;55.74;99411.28;7311659;19;130046;-38
2023/10/15 07:25:32;;;;;;;41.07;2.33;;;;;;;23.47;55.78;99405.25;7315429;19;130179;-39
2023/10/15 07:27:58;;;;;;;58.03;3.47;;;;;;;23.47;55.35;99400.78;7313424;19;130228;-40
2023/10/15 07:30:25;;;;;;;27.95;1.75;;;;;;;23.33;55.98;99376.94;7311555;19;129575;-41
2023/10/15 07:32:53;;;;;;;92.50;5.60;;;;;;;23.47;56.09;99398.16;7312559;19;129591;-38
2023/10/15 07:35:21;;;;;;;64.63;3.65;;;;;;;23.43;56.04;99402.09;7309612;19;130172;-39
2023/10/15 07:37:49;;;;;;;52.22;3.00;;;;;;;23.42;56.18;99400.44;7313537;19;129421;-38
2023/10/15 07:40:16;;;;;;;44.75;2.65;;;;;;;23.46;56.07;99399.16;7310030;19;129412;-38
2023/10/15 07:42:44;;;;;;;58.58;3.45;;;;;;;23.42;55.68;99403.06;7313681;19;129509;-40
2023/10/15 07:45:10;;;;;;;67.97;4.05;;;;;;;23.45;55.89;99405.41;7314566;19;131059;-39
2023/10/15 07:47:38;;;;;;;50.17;2.85;;;;;;;23.45;55.81;99413.28;7314125;19;129154;-40
2023/10/15 07:50:13;;;;;;;68.35;4.28;;;;;;;23.45;57.50;99415.06;7311154;19;131235;-39
2023/10/15 07:52:39;;;;;;;45.22;2.58;;;;;;;23.44;55.52;99416.84;7309916;19;129719;-40
2023/10/15 07:55:07;;;;;;;66.47;3.67;;;;;;;23.35;52.40;99414.34;7310676;19;130250;-36
2023/10/15 07:57:34;;;;;;;109.13;6.18;;;;;;;23.51;52.06;99412.63;7309726;19;129259;-38
2023/10/15 07:59:59;;;;;;;86.43;5.40;;;;;;;23.46;54.13;99404.41;7312756;19;129080;-38
2023/10/15 08:02:26;;;;;;;44.20;2.63;;;;;;;23.44;54.83;99406.34;7309790;19;129652;-40
2023/10/15 08:04:55;;;;;;;121.40;6.78;;;;;;;23.44;55.35;99401.13;7312442;19;130065;-40
2023/10/15 08:07:22;;;;;;;70.20;4.13;;;;;;;23.43;54.91;99402.09;7314705;19;129546;-36
2023/10/15 08:09:47;;;;;;;28.60;1.90;;;;;;;23.41;55.22;99396.19;7311049;19;130488;-37
2023/10/15 08:12:12;;;;;;;52.97;3.23;;;;;;;23.45;55.49;99405.41;7310579;19;129719;-40
2023/10/15 08:14:38;;;;;;;112.93;6.07;;;;;;;23.46;55.57;99395.72;7307797;19;129616;-40
2023/10/15 08:17:04;;;;;;;60.67;3.50;;;;;;;23.45;56.16;99404.56;7307171;19;129666;-36
2023/10/15 08:19:29;;;;;;;31.67;2.00;;;;;;;23.42;56.18;99392.56;7313706;19;129028;-39
2023/10/15 08:21:56;;;;;;;77.33;4.57;;;;;;;23.45;55.53;99402.78;7310153;19;129208;-40
2023/10/15 08:24:21;;;;;;;71.50;4.05;;;;;;;23.45;55.82;99394.06;7308474;19;130553;-40
2023/10/15 08:26:47;;;;;;;37.50;2.47;;;;;;;23.41;56.08;99400.59;7309738;19;129327;-39
2023/10/15 08:29:13;;;;;;;32.73;2.30;;;;;;;23.44;55.62;99398.50;7312927;19;129860;-39
2023/10/15 08:31:38;;;;;;;47.17;3.00;;;;;;;23.44;55.61;99402.91;7313904;19;129537;-39
2023/10/15 08:34:04;;;;;;;131.47;7.47;;;;;;;23.44;56.42;99403.75;7308110;19;129799;-38
2023/10/15 08:36:29;;;;;;;35.67;2.10;;;;;;;23.45;56.08;99413.28;7308647;19;129211;-39
2023/10/15 08:38:54;;;;;;;61.97;4.00;;;;;;;23.19;54.00;99378.31;7312611;19;129750;-39
2023/10/15 08:41:24;;;;;;;30.43;1.87;;;;;;;23.33;52.99;99398.78;7313695;19;129112;-40
2023/10/15 08:43:51;;;;;;;114.25;6.20;;;;;;;23.38;52.65;99385.19;7308168;19;129737;-40
2023/10/15 08:46:23;;;;;;;43.92;2.47;;;;;;;23.42;54.52;99418.81;7310805;19;129755;-39
2023/10/15 08:48:49;;;;;;;50.17;2.97;;;;;;;23.41;54.73;99417.16;7312731;19;128994;-38
2023/10/15 08:51:21;;;;;;;22.33;1.63;;;;;;;23.38;55.12;99414.03;7312875;19;129558;-40
2023/10/15 08:53:50;;;;;;;105.88;5.75;;;;;;;23.41;55.36;99417.16;7310675;19;130933;-37
2023/10/15 08:56:20;;;;;;;57.42;3.30;;;;;;;23.40;55.71;99420.78;7310441;19;129223;-39
2023/10/15 08:58:54;;;;;;;34.55;2.25;;;;;;;23.31;55.83;99400.72;7312381;19;129512;-40
2023/10/15 09:01:21;;;;;;;53.53;3.08;;;;;;;23.42;55.97;99418.81;7313082;19;129541;-38
2023/10/15 09:03:46;;;;;;;43.03;2.72;;;;;;;23.42;56.11;99424.06;7308271;19;130169;-39
2023/10/15 09:06:12;;;;;;;68.90;3.90;;;;;;;23.41;55.41;99409.31;7309795;19;130069;-38
2023/10/15 09:08:41;;;;;;;46.63;2.80;;;;;;;23.42;55.54;99412.75;7313127;19;129286;-38
2023/10/15 09:11:07;;;;;;;74.20;4.47;;;;;;;23.38;55.62;99408.78;7311202;19;129399;-40
2023/10/15 09:13:36;;;;;;;50.60;2.97;;;;;;;23.38;56.06;99404.38;7310551;19;129637;-37
2023/10/15 09:16:03;;;;;;;87.18;5.20;;;;;;;23.42;56.38;99418.81;7308937;19;130607;-40
2023/10/15 09:18:31;;;;;;;33.05;2.13;;;;;;;23.41;55.66;99411.94;7313860;19;129283;-36
2023/10/15 09:20:58;;;;;;;86.80;5.03;;;;;;;23.42;55.71;99412.75;7309537;19;129240;-38
2023/10/15 09:23:24;;;;;;;;;;;;;;;23.20;54.96;99386.03;7312273;19;129567;-41
2023/10/15 09:25:53;;;;;;;70.10;3.80;;;;;;;23.30;53.22;99409.56;7309362;19;129671;-38
2023/10/15 09:28:19;;;;;;;53.42;2.92;;;;;;;23.39;52.53;99410.44;7313313;19;129537;-39
2023/10/15 09:30:46;;;;;;;45.20;2.70;;;;;;;23.39;53.71;99408.63;7311833;19;129929;-40
2023/10/15 09:33:13;;;;;;;;;;;;;;;23.40;56.35;99405.03;7311080;19;129750;-38
2023/10/15 09:35:38;;;;;;;72.30;4.10;;;;;;;23.36;55.17;99387.13;7306690;19;129843;-39
2023/10/15 09:38:04;;;;;;;86.07;5.07;;;;;;;23.40;55.58;99425.19;7310862;19;129547;-37
2023/10/15 09:40:32;;;;;;;39.27;2.40;;;;;;;23.39;55.40;99408.63;7312888;19;129128;-39
2023/10/15 09:42:59;;;;;;;64.30;3.72;;;;;;;23.38;55.61;99420.13;7308622;19;131907;-40
2023/10/15 09:45:25;;;;;;;75.68;4.22;;;;;;;23.39;55.02;99413.88;7308971;19;130213;-39
2023/10/15 09:47:57;;;;;;;60.97;3.70;;;;;;;23.40;56.52;99412.91;7310795;19;130624;-38
2023/10/15 09:50:38;;;;;;;56.58;3.30;;;;;;;23.39;55.65;99418.31;7309841;19;130085;-40
2023/10/15 09:53:09;;;;;;;45.92;2.85;;;;;;;23.32;56.10;99402.34;7310764;19;131041;-40
2023/10/15 09:55:35;;;;;;;40.30;2.30;;;;;;;23.39;55.91;99427.00;7303837;19;129379;-40
2023/10/15 09:58:04;;;;;;;94.27;5.60;;;;;;;23.38;56.75;99427.16;7309976;19;129029;-40
2023/10/15 10:00:47;;;;;;;66.53;3.92;;;;;;;23.39;57.00;99428.81;7311754;19;129356;-38
2023/10/15 10:03:29;;;;;;;34.50;2.03;;;;;;;23.41;58.08;99437.34;7308128;19;130918;-39
2023/10/15 10:06:22;;;;;;;62.22;3.47;;;;;;;23.39;58.33;99434.88;7307717;19;130687;-38
2023/10/15 10:09:16;;;;;;;76.80;4.18;;;;;;;23.25;53.52;99433.59;7312091;19;129580;-38
2023/10/15 10:12:16;;;;;;;78.03;4.25;;;;;;;23.32;52.55;99428.59;7310462;19;128957;-38
2023/10/15 10:15:11;;;;;;;62.50;3.47;;;;;;;23.37;55.04;99433.38;7308513;19;129253;-38
2023/10/15 10:17:38;;;;;;;71.13;4.05;;;;;;;23.34;54.38;99431.88;7306901;19;129510;-40
2023/10/15 10:20:11;;;;;;;99.82;5.75;;;;;;;23.36;56.19;99440.44;7310599;19;129641;-38
2023/10/15 10:22:38;;;;;;;68.70;4.15;;;;;;;23.35;55.48;99433.53;7311181;19;128984;-40
2023/10/15 10:25:06;;;;;;;72.60;4.45;;;;;;;23.37;55.79;99434.19;7307853;19;129528;-40
2023/10/15 10:27:41;;;;;;;57.78;3.33;;;;;;;23.37;56.97;99426.31;7309676;19;129993;-38
2023/10/15 10:30:27;;;;;;;94.28;5.65;;;;;;;23.38;57.44;99430.59;7308506;19;129634;-41
2023/10/15 10:32:55;;;;;;;81.80;4.40;;;;;;;23.36;55.50;99418.59;7309806;19;129630;-38
2023/10/15 10:35:23;;;;;;;59.45;3.40;;;;;;;23.35;55.37;99412.56;7307782;19;129128;-38
2023/10/15 10:38:11;;;;;;;45.88;2.78;;;;;;;23.37;57.39;99418.44;7311110;19;130504;-39
2023/10/15 10:40:49;;;;;;;29.90;2.00;;;;;;;23.37;57.38;99418.44;7307686;19;129010;-40
2023/10/15 10:43:17;;;;;;;68.55;4.18;;;;;;;23.37;55.69;99415.81;7309450;19;129027;-39
2023/10/15 10:45:56;;;;;;;37.25;2.35;;;;;;;23.37;57.48;99415.81;7307214;19;130154;-39
2023/10/15 10:48:27;;;;;;;71.53;3.97;;;;;;;23.36;57.30;99398.44;7307996;19;129755;-37
2023/10/15 10:51:07;;;;;;;111.20;6.03;;;;;;;23.37;57.77;99400.09;7307121;19;129851;-39
2023/10/15 10:53:33;;;;;;;81.80;4.68;;;;;;;23.25;53.26;99404.75;7309075;19;128965;-40
2023/10/15 10:56:05;;;;;;;45.23;2.77;;;;;;;23.28;52.45;99401.03;7304151;19;130189;-40
2023/10/15 10:58:30;;;;;;;38.55;2.25;;;;;;;23.43;53.12;99401.28;7309751;19;129703;-37
2023/10/15 11:00:57;;;;;;;44.57;2.73;;;;;;;23.34;54.33;99400.41;7306585;19;129477;-38
2023/10/15 11:03:23;;;;;;;96.10;5.38;;;;;;;23.35;54.43;99403.84;7307021;19;129843;-39
2023/10/15 11:05:48;;;;;;;57.47;3.20;;;;;;;23.35;55.15;99398.59;7307008;19;129609;-37
2023/10/15 11:08:22;;;;;;;70.90;4.37;;;;;;;23.32;56.47;99397.09;7308028;19;129260;-38
2023/10/15 11:10:48;;;;;;;34.58;2.15;;;;;;;23.35;55.92;99396.81;7309255;19;128979;-39
2023/10/15 11:13:17;;;;;;;119.63;6.38;;;;;;;23.32;55.76;99399.72;7307574;19;129373;-38
2023/10/15 11:15:44;;;;;;;48.08;3.00;;;;;;;23.22;55.29;99380.66;7305792;19;130768;-37
2023/10/15 11:18:09;;;;;;;67.15;4.13;;;;;;;23.34;55.83;99396.97;7309466;19;129576;-39
2023/10/15 11:20:36;;;;;;;50.33;3.10;;;;;;;23.34;56.27;99395.16;7309676;19;128978;-40
2023/10/15 11:23:05;;;;;;;68.70;3.67;;;;;;;23.35;56.38;99391.56;7309892;19;129506;-40
2023/10/15 11:25:34;;;;;;;34.72;2.10;;;;;;;23.36;55.84;99395.00;7305921;19;129557;-39
2023/10/15 11:28:10;;;;;;;37.10;2.60;;;;;;;23.23;57.83;99383.13;7308318;19;130402;-40
2023/10/15 11:30:36;;;;;;;48.90;3.08;;;;;;;23.35;56.38;99386.31;7307636;19;129615;-40
2023/10/15 11:33:07;;;;;;;43.30;2.63;;;;;;;23.34;56.45;99379.41;7309213;19;129119;-40